sensor_id;sensor_type;location;lat;lon;timestamp;pressure;altitude;pressure_sealevel;temperature;humidity
53270;BME280;39159;45.634;9.420;2024-03-23T00:55:33;98754.53;;;11.80;100.00
53270;BME280;39159;45.634;9.420;2024-03-23T00:57:58;98747.78;;;11.77;100.00
53270;BME280;39159;45.634;9.420;2024-03-23T01:00:24;98751.97;;;11.75;100.00
53270;BME280;39159;45.634;9.420;2024-03-23T01:02:49;98750.03;;;11.75;100.00
53270;BME280;39159;45.634;9.420;2024-03-23T01:05:14;98750.34;;;11.82;100.00
53270;BME280;39159;45.634;9.420;2024-03-23T01:07:40;98741.19;;;11.78;100.00
53270;BME280;39159;45.634;9.420;2024-03-23T01:10:05;98741.69;;;11.80;100.00
53270;BME280;39159;45.634;9.420;2024-03-23T01:12:31;98734.28;;;11.72;100.00
53270;BME280;39159;45.634;9.420;2024-03-23T01:14:56;98732.03;;;11.74;100.00
53270;BME280;39159;45.634;9.420;2024-03-23T01:17:21;98729.28;;;11.74;100.00
53270;BME280;39159;45.634;9.420;2024-03-23T01:19:47;98731.84;;;11.79;100.00
53270;BME280;39159;45.634;9.420;2024-03-23T01:22:12;98724.78;;;11.78;100.00
53270;BME280;39159;45.634;9.420;2024-03-23T01:24:37;98724.13;;;11.73;100.00
53270;BME280;39159;45.634;9.420;2024-03-23T01:27:03;98726.06;;;11.72;100.00
53270;BME280;39159;45.634;9.420;2024-03-23T01:29:29;98720.91;;;11.71;100.00
53270;BME280;39159;45.634;9.420;2024-03-23T01:31:54;98722.84;;;11.70;100.00
53270;BME280;39159;45.634;9.420;2024-03-23T01:34:19;98723.00;;;11.65;100.00
53270;BME280;39159;45.634;9.420;2024-03-23T01:36:46;98718.97;;;11.62;100.00
53270;BME280;39159;45.634;9.420;2024-03-23T01:39:11;98717.38;;;11.61;100.00
53270;BME280;39159;45.634;9.420;2024-03-23T01:41:37;98710.75;;;11.62;100.00
53270;BME280;39159;45.634;9.420;2024-03-23T01:44:05;98701.47;;;11.64;100.00
53270;BME280;39159;45.634;9.420;2024-03-23T01:46:35;98704.38;;;11.67;100.00
53270;BME280;39159;45.634;9.420;2024-03-23T01:49:01;98700.50;;;11.68;100.00
53270;BME280;39159;45.634;9.420;2024-03-23T01:51:27;98685.22;;;11.67;100.00
53270;BME280;39159;45.634;9.420;2024-03-23T01:53:54;98688.59;;;11.64;100.00
53270;BME280;39159;45.634;9.420;2024-03-23T01:56:20;98686.16;;;11.62;100.00
53270;BME280;39159;45.634;9.420;2024-03-23T01:58:45;98681.03;;;11.61;100.00
53270;BME280;39159;45.634;9.420;2024-03-23T02:01:11;98683.91;;;11.56;100.00
53270;BME280;39159;45.634;9.420;2024-03-23T02:03:36;98668.97;;;11.53;100.00
53270;BME280;39159;45.634;9.420;2024-03-23T02:06:02;98669.13;;;11.48;100.00
53270;BME280;39159;45.634;9.420;2024-03-23T02:08:28;98666.72;;;11.47;100.00
53270;BME280;39159;45.634;9.420;2024-03-23T02:10:55;98664.78;;;11.38;100.00
53270;BME280;39159;45.634;9.420;2024-03-23T02:13:21;98658.66;;;11.24;100.00
53270;BME280;39159;45.634;9.420;2024-03-23T02:15:46;98649.84;;;11.18;100.00
53270;BME280;39159;45.634;9.420;2024-03-23T02:18:11;98648.50;;;11.16;100.00
53270;BME280;39159;45.634;9.420;2024-03-23T02:20:37;98644.66;;;11.08;100.00
53270;BME280;39159;45.634;9.420;2024-03-23T02:23:04;98645.94;;;11.11;100.00
53270;BME280;39159;45.634;9.420;2024-03-23T02:25:31;98645.16;;;11.10;100.00
53270;BME280;39159;45.634;9.420;2024-03-23T02:27:56;98640.34;;;11.07;100.00
53270;BME280;39159;45.634;9.420;2024-03-23T02:30:24;98646.09;;;11.06;100.00
53270;BME280;39159;45.634;9.420;2024-03-23T02:32:49;98652.69;;;11.05;100.00
53270;BME280;39159;45.634;9.420;2024-03-23T02:35:14;98643.69;;;11.04;100.00
53270;BME280;39159;45.634;9.420;2024-03-23T02:37:40;98636.28;;;11.05;100.00
53270;BME280;39159;45.634;9.420;2024-03-23T02:40:05;98639.03;;;11.05;100.00
53270;BME280;39159;45.634;9.420;2024-03-23T02:42:31;98633.91;;;11.03;100.00
53270;BME280;39159;45.634;9.420;2024-03-23T02:44:57;98628.25;;;10.99;100.00
53270;BME280;39159;45.634;9.420;2024-03-23T02:47:23;98633.22;;;10.97;100.00
53270;BME280;39159;45.634;9.420;2024-03-23T02:49:48;98634.97;;;10.93;100.00
53270;BME280;39159;45.634;9.420;2024-03-23T02:52:13;98633.06;;;10.85;100.00
53270;BME280;39159;45.634;9.420;2024-03-23T02:54:39;98638.97;;;10.78;100.00
53270;BME280;39159;45.634;9.420;2024-03-23T02:57:04;98645.72;;;10.81;100.00
53270;BME280;39159;45.634;9.420;2024-03-23T02:59:30;98642.53;;;10.88;100.00
53270;BME280;39159;45.634;9.420;2024-03-23T03:01:55;98646.56;;;10.90;100.00
53270;BME280;39159;45.634;9.420;2024-03-23T03:04:21;98643.63;;;10.78;100.00
53270;BME280;39159;45.634;9.420;2024-03-23T03:06:49;98636.91;;;10.84;100.00
53270;BME280;39159;45.634;9.420;2024-03-23T03:09:14;98625.50;;;10.91;100.00
53270;BME280;39159;45.634;9.420;2024-03-23T03:11:40;98626.97;;;10.97;100.00
53270;BME280;39159;45.634;9.420;2024-03-23T03:14:05;98628.06;;;10.96;100.00
53270;BME280;39159;45.634;9.420;2024-03-23T03:16:33;98624.22;;;10.88;100.00
53270;BME280;39159;45.634;9.420;2024-03-23T03:18:58;98621.19;;;10.90;100.00
53270;BME280;39159;45.634;9.420;2024-03-23T03:21:24;98620.50;;;10.84;100.00
53270;BME280;39159;45.634;9.420;2024-03-23T03:23:49;98612.94;;;10.72;100.00
53270;BME280;39159;45.634;9.420;2024-03-23T03:26:18;98619.66;;;10.66;100.00
53270;BME280;39159;45.634;9.420;2024-03-23T03:28:44;98610.84;;;10.61;100.00
53270;BME280;39159;45.634;9.420;2024-03-23T03:31:14;98601.81;;;10.60;100.00
53270;BME280;39159;45.634;9.420;2024-03-23T03:33:39;98605.50;;;10.55;100.00
53270;BME280;39159;45.634;9.420;2024-03-23T03:36:05;98602.97;;;10.59;100.00
53270;BME280;39159;45.634;9.420;2024-03-23T03:38:30;98600.56;;;10.66;100.00
53270;BME280;39159;45.634;9.420;2024-03-23T03:40:55;98598.97;;;10.65;100.00
53270;BME280;39159;45.634;9.420;2024-03-23T03:43:21;98593.03;;;10.72;100.00
53270;BME280;39159;45.634;9.420;2024-03-23T03:45:56;98595.78;;;10.72;100.00
53270;BME280;39159;45.634;9.420;2024-03-23T03:48:22;98593.03;;;10.72;100.00
53270;BME280;39159;45.634;9.420;2024-03-23T03:50:47;98593.69;;;10.77;100.00
53270;BME280;39159;45.634;9.420;2024-03-23T03:53:13;98592.88;;;10.77;100.00
53270;BME280;39159;45.634;9.420;2024-03-23T03:55:38;98595.44;;;10.73;100.00
53270;BME280;39159;45.634;9.420;2024-03-23T03:58:04;98592.59;;;10.78;100.00
53270;BME280;39159;45.634;9.420;2024-03-23T04:00:32;98590.81;;;10.74;100.00
53270;BME280;39159;45.634;9.420;2024-03-23T04:02:57;98591.13;;;10.72;100.00
53270;BME280;39159;45.634;9.420;2024-03-23T04:05:23;98590.13;;;10.68;100.00
53270;BME280;39159;45.634;9.420;2024-03-23T04:07:48;98586.28;;;10.69;100.00
53270;BME280;39159;45.634;9.420;2024-03-23T04:10:14;98593.16;;;10.67;100.00
53270;BME280;39159;45.634;9.420;2024-03-23T04:12:40;98585.47;;;10.69;100.00
53270;BME280;39159;45.634;9.420;2024-03-23T04:15:05;98585.47;;;10.69;100.00
53270;BME280;39159;45.634;9.420;2024-03-23T04:17:31;98586.75;;;10.71;100.00
53270;BME280;39159;45.634;9.420;2024-03-23T04:19:58;98581.97;;;10.77;100.00
53270;BME280;39159;45.634;9.420;2024-03-23T04:22:23;98587.13;;;10.78;100.00
53270;BME280;39159;45.634;9.420;2024-03-23T04:24:53;98586.28;;;10.78;100.00
53270;BME280;39159;45.634;9.420;2024-03-23T04:27:19;98573.97;;;10.81;100.00
53270;BME280;39159;45.634;9.420;2024-03-23T04:29:48;98572.50;;;10.83;100.00
53270;BME280;39159;45.634;9.420;2024-03-23T04:32:14;98556.63;;;10.85;100.00
53270;BME280;39159;45.634;9.420;2024-03-23T04:34:39;98568.16;;;10.82;100.00
53270;BME280;39159;45.634;9.420;2024-03-23T04:37:05;98565.28;;;10.78;100.00
53270;BME280;39159;45.634;9.420;2024-03-23T04:39:30;98561.41;;;10.79;100.00
53270;BME280;39159;45.634;9.420;2024-03-23T04:41:55;98569.78;;;10.83;100.00
53270;BME280;39159;45.634;9.420;2024-03-23T04:44:21;98563.84;;;10.81;100.00
53270;BME280;39159;45.634;9.420;2024-03-23T04:46:46;98545.16;;;10.57;100.00
53270;BME280;39159;45.634;9.420;2024-03-23T04:49:12;98551.13;;;10.59;100.00
53270;BME280;39159;45.634;9.420;2024-03-23T04:51:37;98549.84;;;10.65;100.00
53270;BME280;39159;45.634;9.420;2024-03-23T04:54:11;98550.97;;;10.73;100.00
53270;BME280;39159;45.634;9.420;2024-03-23T04:56:36;98558.84;;;10.74;100.00
53270;BME280;39159;45.634;9.420;2024-03-23T04:59:02;98556.41;;;10.64;100.00
53270;BME280;39159;45.634;9.420;2024-03-23T05:01:29;98552.88;;;10.55;100.00
53270;BME280;39159;45.634;9.420;2024-03-23T05:03:56;98548.06;;;10.61;100.00
53270;BME280;39159;45.634;9.420;2024-03-23T05:06:22;98548.19;;;10.55;100.00
53270;BME280;39159;45.634;9.420;2024-03-23T05:08:48;98541.63;;;10.48;100.00
53270;BME280;39159;45.634;9.420;2024-03-23T05:11:13;98548.97;;;10.39;100.00
53270;BME280;39159;45.634;9.420;2024-03-23T05:13:39;98548.63;;;10.31;100.00
53270;BME280;39159;45.634;9.420;2024-03-23T05:16:04;98545.09;;;10.31;100.00
53270;BME280;39159;45.634;9.420;2024-03-23T05:18:30;98545.75;;;10.36;100.00
53270;BME280;39159;45.634;9.420;2024-03-23T05:20:58;98544.66;;;10.46;100.00
53270;BME280;39159;45.634;9.420;2024-03-23T05:23:25;98537.59;;;10.45;100.00
53270;BME280;39159;45.634;9.420;2024-03-23T05:25:51;98537.00;;;10.66;100.00
53270;BME280;39159;45.634;9.420;2024-03-23T05:28:20;98524.81;;;10.89;100.00
53270;BME280;39159;45.634;9.420;2024-03-23T05:30:54;98528.66;;;10.79;100.00
53270;BME280;39159;45.634;9.420;2024-03-23T05:33:20;98534.44;;;10.87;100.00
53270;BME280;39159;45.634;9.420;2024-03-23T05:35:46;98521.13;;;10.85;100.00
53270;BME280;39159;45.634;9.420;2024-03-23T05:38:15;98512.59;;;10.87;100.00
53270;BME280;39159;45.634;9.420;2024-03-23T05:40:40;98520.97;;;10.90;100.00
53270;BME280;39159;45.634;9.420;2024-03-23T05:43:06;98516.78;;;10.93;100.00
53270;BME280;39159;45.634;9.420;2024-03-23T05:45:32;98513.09;;;10.89;100.00
53270;BME280;39159;45.634;9.420;2024-03-23T05:47:57;98525.28;;;11.00;100.00
53270;BME280;39159;45.634;9.420;2024-03-23T05:50:23;98524.81;;;11.07;100.00
53270;BME280;39159;45.634;9.420;2024-03-23T05:52:52;98527.41;;;11.20;100.00
53270;BME280;39159;45.634;9.420;2024-03-23T05:55:17;98531.56;;;11.18;100.00
53270;BME280;39159;45.634;9.420;2024-03-23T05:57:43;98526.75;;;11.24;100.00
53270;BME280;39159;45.634;9.420;2024-03-23T06:00:08;98529.66;;;11.27;100.00
53270;BME280;39159;45.634;9.420;2024-03-23T06:02:44;98523.22;;;11.32;100.00
53270;BME280;39159;45.634;9.420;2024-03-23T06:05:11;98531.06;;;11.25;100.00
53270;BME280;39159;45.634;9.420;2024-03-23T06:07:37;98533.00;;;11.24;100.00
53270;BME280;39159;45.634;9.420;2024-03-23T06:10:05;98526.09;;;11.27;100.00
53270;BME280;39159;45.634;9.420;2024-03-23T06:12:31;98526.28;;;11.22;100.00
53270;BME280;39159;45.634;9.420;2024-03-23T06:14:56;98510.66;;;11.39;100.00
53270;BME280;39159;45.634;9.420;2024-03-23T06:17:22;98509.00;;;11.56;100.00
53270;BME280;39159;45.634;9.420;2024-03-23T06:19:47;98509.97;;;11.60;100.00
53270;BME280;39159;45.634;9.420;2024-03-23T06:22:12;98508.66;;;11.66;100.00
53270;BME280;39159;45.634;9.420;2024-03-23T06:24:38;98501.09;;;11.80;100.00
53270;BME280;39159;45.634;9.420;2024-03-23T06:27:03;98497.03;;;11.78;100.00
53270;BME280;39159;45.634;9.420;2024-03-23T06:29:29;98507.00;;;11.91;100.00
53270;BME280;39159;45.634;9.420;2024-03-23T06:31:55;98500.88;;;12.03;100.00
53270;BME280;39159;45.634;9.420;2024-03-23T06:34:20;98489.72;;;12.08;100.00
53270;BME280;39159;45.634;9.420;2024-03-23T06:36:47;98498.72;;;12.09;100.00
53270;BME280;39159;45.634;9.420;2024-03-23T06:39:12;98493.03;;;12.22;100.00
53270;BME280;39159;45.634;9.420;2024-03-23T06:41:51;98495.81;;;12.43;100.00
53270;BME280;39159;45.634;9.420;2024-03-23T06:44:16;98486.94;;;12.47;100.00
53270;BME280;39159;45.634;9.420;2024-03-23T06:46:42;98489.56;;;12.64;100.00
53270;BME280;39159;45.634;9.420;2024-03-23T06:49:09;98492.97;;;12.82;100.00
53270;BME280;39159;45.634;9.420;2024-03-23T06:51:34;98488.69;;;12.93;100.00
53270;BME280;39159;45.634;9.420;2024-03-23T06:53:59;98487.84;;;13.01;100.00
53270;BME280;39159;45.634;9.420;2024-03-23T06:56:25;98486.06;;;13.18;100.00
53270;BME280;39159;45.634;9.420;2024-03-23T06:58:50;98488.53;;;13.32;100.00
53270;BME280;39159;45.634;9.420;2024-03-23T07:01:15;98482.78;;;13.45;100.00
53270;BME280;39159;45.634;9.420;2024-03-23T07:03:41;98488.41;;;13.61;100.00
53270;BME280;39159;45.634;9.420;2024-03-23T07:06:06;98503.06;;;13.78;100.00
53270;BME280;39159;45.634;9.420;2024-03-23T07:08:31;98491.06;;;13.70;100.00
53270;BME280;39159;45.634;9.420;2024-03-23T07:10:57;98477.22;;;13.66;100.00
53270;BME280;39159;45.634;9.420;2024-03-23T07:13:22;98470.94;;;13.66;100.00
53270;BME280;39159;45.634;9.420;2024-03-23T07:15:51;98480.91;;;13.71;100.00
53270;BME280;39159;45.634;9.420;2024-03-23T07:18:17;98476.44;;;13.66;100.00
53270;BME280;39159;45.634;9.420;2024-03-23T07:20:45;98475.78;;;13.81;100.00
53270;BME280;39159;45.634;9.420;2024-03-23T07:23:16;98483.09;;;13.89;100.00
53270;BME280;39159;45.634;9.420;2024-03-23T07:25:42;98490.63;;;13.93;100.00
53270;BME280;39159;45.634;9.420;2024-03-23T07:28:07;98489.94;;;13.96;100.00
53270;BME280;39159;45.634;9.420;2024-03-23T07:30:32;98484.16;;;14.09;100.00
53270;BME280;39159;45.634;9.420;2024-03-23T07:32:58;98476.56;;;14.31;100.00
53270;BME280;39159;45.634;9.420;2024-03-23T07:35:23;98480.94;;;14.57;100.00
53270;BME280;39159;45.634;9.420;2024-03-23T07:37:48;98482.00;;;14.80;100.00
53270;BME280;39159;45.634;9.420;2024-03-23T07:40:14;98477.94;;;15.02;100.00
53270;BME280;39159;45.634;9.420;2024-03-23T07:42:39;98474.13;;;15.19;100.00
53270;BME280;39159;45.634;9.420;2024-03-23T07:45:05;98467.59;;;15.40;100.00
53270;BME280;39159;45.634;9.420;2024-03-23T07:47:30;98460.00;;;15.65;100.00
53270;BME280;39159;45.634;9.420;2024-03-23T07:49:56;98470.75;;;15.70;100.00
53270;BME280;39159;45.634;9.420;2024-03-23T07:52:21;98471.31;;;15.91;100.00
53270;BME280;39159;45.634;9.420;2024-03-23T07:54:47;98477.09;;;15.86;99.66
53270;BME280;39159;45.634;9.420;2024-03-23T07:57:12;98472.13;;;15.92;100.00
53270;BME280;39159;45.634;9.420;2024-03-23T07:59:37;98470.59;;;16.10;100.00
53270;BME280;39159;45.634;9.420;2024-03-23T08:02:03;98472.44;;;16.22;100.00
53270;BME280;39159;45.634;9.420;2024-03-23T08:04:29;98474.72;;;16.52;98.52
53270;BME280;39159;45.634;9.420;2024-03-23T08:06:54;98480.63;;;16.70;96.81
53270;BME280;39159;45.634;9.420;2024-03-23T08:09:19;98484.47;;;16.49;96.23
53270;BME280;39159;45.634;9.420;2024-03-23T08:11:45;98480.91;;;16.65;97.47
53270;BME280;39159;45.634;9.420;2024-03-23T08:14:11;98468.19;;;16.60;97.54
53270;BME280;39159;45.634;9.420;2024-03-23T08:16:37;98466.75;;;16.66;97.50
53270;BME280;39159;45.634;9.420;2024-03-23T08:19:02;98465.69;;;16.71;97.48
53270;BME280;39159;45.634;9.420;2024-03-23T08:21:29;98472.78;;;16.88;97.17
53270;BME280;39159;45.634;9.420;2024-03-23T08:23:54;98479.09;;;16.72;99.31
53270;BME280;39159;45.634;9.420;2024-03-23T08:26:20;98472.22;;;16.47;99.79
53270;BME280;39159;45.634;9.420;2024-03-23T08:28:45;98463.97;;;16.47;100.00
53270;BME280;39159;45.634;9.420;2024-03-23T08:31:11;98464.84;;;16.51;100.00
53270;BME280;39159;45.634;9.420;2024-03-23T08:33:38;98466.94;;;16.22;100.00
53270;BME280;39159;45.634;9.420;2024-03-23T08:36:08;98470.88;;;16.21;100.00
53270;BME280;39159;45.634;9.420;2024-03-23T08:38:34;98466.06;;;16.18;100.00
53270;BME280;39159;45.634;9.420;2024-03-23T08:41:10;98466.63;;;16.08;100.00
53270;BME280;39159;45.634;9.420;2024-03-23T08:43:37;98464.03;;;16.15;100.00
53270;BME280;39159;45.634;9.420;2024-03-23T08:46:05;98461.88;;;16.24;100.00
53270;BME280;39159;45.634;9.420;2024-03-23T08:48:32;98466.91;;;16.38;100.00
53270;BME280;39159;45.634;9.420;2024-03-23T08:51:08;98473.00;;;16.28;100.00
53270;BME280;39159;45.634;9.420;2024-03-23T08:53:37;98469.09;;;15.97;100.00
53270;BME280;39159;45.634;9.420;2024-03-23T08:56:04;98465.00;;;15.75;100.00
53270;BME280;39159;45.634;9.420;2024-03-23T08:58:32;98455.75;;;15.67;100.00
53270;BME280;39159;45.634;9.420;2024-03-23T09:01:09;98442.66;;;15.77;100.00
53270;BME280;39159;45.634;9.420;2024-03-23T09:03:35;98440.16;;;15.87;100.00
53270;BME280;39159;45.634;9.420;2024-03-23T09:06:06;98443.72;;;15.88;100.00
53270;BME280;39159;45.634;9.420;2024-03-23T09:08:31;98430.19;;;15.67;100.00
53270;BME280;39159;45.634;9.420;2024-03-23T09:10:57;98429.72;;;15.65;100.00
53270;BME280;39159;45.634;9.420;2024-03-23T09:13:22;98430.09;;;15.47;100.00
53270;BME280;39159;45.634;9.420;2024-03-23T09:15:48;98423.94;;;15.38;100.00
53270;BME280;39159;45.634;9.420;2024-03-23T09:18:14;98423.25;;;15.25;100.00
53270;BME280;39159;45.634;9.420;2024-03-23T09:20:39;98415.44;;;15.27;100.00
53270;BME280;39159;45.634;9.420;2024-03-23T09:23:05;98414.16;;;15.25;100.00
53270;BME280;39159;45.634;9.420;2024-03-23T09:25:30;98403.84;;;15.34;100.00
53270;BME280;39159;45.634;9.420;2024-03-23T09:27:55;98399.38;;;15.29;100.00
53270;BME280;39159;45.634;9.420;2024-03-23T09:30:21;98395.47;;;15.30;100.00
53270;BME280;39159;45.634;9.420;2024-03-23T09:32:46;98381.72;;;15.30;100.00
53270;BME280;39159;45.634;9.420;2024-03-23T09:35:12;98379.25;;;15.41;100.00
53270;BME280;39159;45.634;9.420;2024-03-23T09:37:38;98385.28;;;15.47;100.00
53270;BME280;39159;45.634;9.420;2024-03-23T09:40:05;98383.59;;;15.58;100.00
53270;BME280;39159;45.634;9.420;2024-03-23T09:42:32;98377.75;;;15.60;100.00
53270;BME280;39159;45.634;9.420;2024-03-23T09:44:59;98376.84;;;15.55;100.00
53270;BME280;39159;45.634;9.420;2024-03-23T09:47:24;98374.47;;;15.54;100.00
53270;BME280;39159;45.634;9.420;2024-03-23T09:49:50;98371.09;;;15.29;100.00
53270;BME280;39159;45.634;9.420;2024-03-23T09:52:15;98366.03;;;15.31;100.00
53270;BME280;39159;45.634;9.420;2024-03-23T09:54:41;98362.94;;;15.17;100.00
53270;BME280;39159;45.634;9.420;2024-03-23T09:57:06;98363.09;;;15.08;100.00
53270;BME280;39159;45.634;9.420;2024-03-23T09:59:33;98362.03;;;15.12;100.00
53270;BME280;39159;45.634;9.420;2024-03-23T10:01:59;98353.59;;;15.05;100.00
53270;BME280;39159;45.634;9.420;2024-03-23T10:04:37;98357.94;;;15.06;100.00
53270;BME280;39159;45.634;9.420;2024-03-23T10:09:38;98346.13;;;14.90;100.00
53270;BME280;39159;45.634;9.420;2024-03-23T10:12:14;98347.97;;;14.86;100.00
53270;BME280;39159;45.634;9.420;2024-03-23T10:14:40;98353.19;;;14.91;100.00
53270;BME280;39159;45.634;9.420;2024-03-23T10:17:12;98340.72;;;14.93;100.00
53270;BME280;39159;45.634;9.420;2024-03-23T10:19:45;98339.47;;;14.91;100.00
53270;BME280;39159;45.634;9.420;2024-03-23T10:22:14;98331.16;;;15.03;100.00
53270;BME280;39159;45.634;9.420;2024-03-23T10:24:39;98317.78;;;15.18;100.00
53270;BME280;39159;45.634;9.420;2024-03-23T10:27:05;98305.03;;;15.41;100.00
53270;BME280;39159;45.634;9.420;2024-03-23T10:29:30;98299.94;;;15.75;100.00
53270;BME280;39159;45.634;9.420;2024-03-23T10:32:09;98300.28;;;16.09;100.00
53270;BME280;39159;45.634;9.420;2024-03-23T10:34:36;98291.75;;;16.33;100.00
53270;BME280;39159;45.634;9.420;2024-03-23T10:37:03;98290.53;;;16.50;100.00
53270;BME280;39159;45.634;9.420;2024-03-23T10:39:32;98287.03;;;16.92;100.00
53270;BME280;39159;45.634;9.420;2024-03-23T10:42:03;98275.16;;;17.38;99.24
53270;BME280;39159;45.634;9.420;2024-03-23T10:44:29;98265.00;;;17.95;96.29
53270;BME280;39159;45.634;9.420;2024-03-23T10:46:56;98268.34;;;18.08;93.76
53270;BME280;39159;45.634;9.420;2024-03-23T10:49:29;98251.81;;;17.81;94.39
53270;BME280;39159;45.634;9.420;2024-03-23T10:51:56;98259.91;;;17.71;93.94
53270;BME280;39159;45.634;9.420;2024-03-23T10:54:23;98264.69;;;17.47;97.36
53270;BME280;39159;45.634;9.420;2024-03-23T10:56:56;98252.03;;;17.19;97.74
53270;BME280;39159;45.634;9.420;2024-03-23T10:59:24;98244.63;;;17.24;99.42
53270;BME280;39159;45.634;9.420;2024-03-23T11:01:57;98252.59;;;17.06;100.00
53270;BME280;39159;45.634;9.420;2024-03-23T11:04:33;98247.25;;;16.93;100.00
53270;BME280;39159;45.634;9.420;2024-03-23T11:07:00;98239.28;;;16.65;100.00
53270;BME280;39159;45.634;9.420;2024-03-23T11:17:22;98203.38;;;16.81;100.00
53270;BME280;39159;45.634;9.420;2024-03-23T11:19:58;98193.50;;;17.03;100.00
53270;BME280;39159;45.634;9.420;2024-03-23T11:22:45;98190.69;;;17.26;98.24
53270;BME280;39159;45.634;9.420;2024-03-23T11:27:40;98182.22;;;16.89;100.00
53270;BME280;39159;45.634;9.420;2024-03-23T11:32:37;98170.78;;;16.87;100.00
53270;BME280;39159;45.634;9.420;2024-03-23T11:35:03;98169.97;;;16.86;100.00
53270;BME280;39159;45.634;9.420;2024-03-23T11:37:28;98165.38;;;16.71;100.00
53270;BME280;39159;45.634;9.420;2024-03-23T11:39:54;98155.03;;;16.64;100.00
53270;BME280;39159;45.634;9.420;2024-03-23T11:42:19;98135.84;;;16.71;100.00
53270;BME280;39159;45.634;9.420;2024-03-23T11:44:46;98151.94;;;16.69;100.00
53270;BME280;39159;45.634;9.420;2024-03-23T11:47:12;98147.69;;;16.72;100.00
53270;BME280;39159;45.634;9.420;2024-03-23T11:49:37;98139.41;;;16.72;100.00
53270;BME280;39159;45.634;9.420;2024-03-23T11:52:06;98138.91;;;16.66;100.00
53270;BME280;39159;45.634;9.420;2024-03-23T11:54:32;98142.09;;;16.68;100.00
53270;BME280;39159;45.634;9.420;2024-03-23T11:59:41;98128.78;;;16.74;100.00
53270;BME280;39159;45.634;9.420;2024-03-23T12:04:33;98115.06;;;16.51;100.00
53270;BME280;39159;45.634;9.420;2024-03-23T12:07:17;98121.22;;;16.44;100.00
53270;BME280;39159;45.634;9.420;2024-03-23T12:10:05;98113.66;;;16.37;100.00
53270;BME280;39159;45.634;9.420;2024-03-23T12:12:31;98108.88;;;16.34;100.00
53270;BME280;39159;45.634;9.420;2024-03-23T12:15:04;98117.56;;;16.36;100.00
53270;BME280;39159;45.634;9.420;2024-03-23T12:17:31;98092.22;;;16.27;100.00
53270;BME280;39159;45.634;9.420;2024-03-23T12:19:57;98106.59;;;16.17;100.00
53270;BME280;39159;45.634;9.420;2024-03-23T12:22:23;98092.97;;;16.24;100.00
53270;BME280;39159;45.634;9.420;2024-03-23T12:24:48;98093.38;;;16.03;100.00
53270;BME280;39159;45.634;9.420;2024-03-23T12:27:14;98083.41;;;15.95;100.00
53270;BME280;39159;45.634;9.420;2024-03-23T12:29:40;98082.66;;;15.98;100.00
53270;BME280;39159;45.634;9.420;2024-03-23T12:32:06;98079.53;;;16.00;100.00
53270;BME280;39159;45.634;9.420;2024-03-23T12:34:32;98083.50;;;15.79;100.00
53270;BME280;39159;45.634;9.420;2024-03-23T12:36:58;98078.44;;;15.81;100.00
53270;BME280;39159;45.634;9.420;2024-03-23T12:39:23;98082.41;;;15.84;100.00
53270;BME280;39159;45.634;9.420;2024-03-23T12:41:49;98075.25;;;15.79;100.00
53270;BME280;39159;45.634;9.420;2024-03-23T12:44:15;98074.06;;;15.80;100.00
53270;BME280;39159;45.634;9.420;2024-03-23T12:46:41;98072.19;;;15.84;100.00
53270;BME280;39159;45.634;9.420;2024-03-23T12:49:07;98073.28;;;16.03;100.00
53270;BME280;39159;45.634;9.420;2024-03-23T12:51:32;98061.03;;;15.97;100.00
53270;BME280;39159;45.634;9.420;2024-03-23T12:53:58;98062.91;;;15.92;100.00
53270;BME280;39159;45.634;9.420;2024-03-23T12:56:23;98064.88;;;16.15;100.00
53270;BME280;39159;45.634;9.420;2024-03-23T12:58:49;98062.25;;;16.45;100.00
53270;BME280;39159;45.634;9.420;2024-03-23T13:01:17;98034.53;;;16.84;100.00
53270;BME280;39159;45.634;9.420;2024-03-23T13:03:42;98037.06;;;16.96;100.00
53270;BME280;39159;45.634;9.420;2024-03-23T13:06:10;98009.53;;;17.30;98.47
53270;BME280;39159;45.634;9.420;2024-03-23T13:08:35;98013.84;;;17.28;96.63
53270;BME280;39159;45.634;9.420;2024-03-23T13:11:00;98020.34;;;17.46;96.53
53270;BME280;39159;45.634;9.420;2024-03-23T13:13:26;97993.22;;;17.89;91.97
53270;BME280;39159;45.634;9.420;2024-03-23T13:15:51;97974.38;;;17.98;92.43
53270;BME280;39159;45.634;9.420;2024-03-23T13:18:16;97982.34;;;18.07;90.62
53270;BME280;39159;45.634;9.420;2024-03-23T13:20:42;97980.22;;;18.38;89.60
53270;BME280;39159;45.634;9.420;2024-03-23T13:23:07;97977.28;;;18.72;90.45
53270;BME280;39159;45.634;9.420;2024-03-23T13:25:33;97991.22;;;18.90;87.45
53270;BME280;39159;45.634;9.420;2024-03-23T13:27:59;97972.41;;;19.17;84.49
53270;BME280;39159;45.634;9.420;2024-03-23T13:30:24;97962.13;;;19.17;83.27
53270;BME280;39159;45.634;9.420;2024-03-23T13:32:50;97953.53;;;19.37;81.52
53270;BME280;39159;45.634;9.420;2024-03-23T13:35:15;97931.34;;;19.22;81.25
53270;BME280;39159;45.634;9.420;2024-03-23T13:37:41;97949.53;;;19.23;81.08
53270;BME280;39159;45.634;9.420;2024-03-23T13:40:07;97955.09;;;19.38;79.45
53270;BME280;39159;45.634;9.420;2024-03-23T13:42:33;97955.94;;;19.53;79.13
53270;BME280;39159;45.634;9.420;2024-03-23T13:44:58;97949.56;;;19.45;76.94
53270;BME280;39159;45.634;9.420;2024-03-23T13:47:23;97959.09;;;19.55;76.21
53270;BME280;39159;45.634;9.420;2024-03-23T13:49:49;97976.09;;;19.60;78.93
53270;BME280;39159;45.634;9.420;2024-03-23T13:52:14;97962.69;;;19.66;76.90
53270;BME280;39159;45.634;9.420;2024-03-23T13:54:39;97963.06;;;19.64;75.25
53270;BME280;39159;45.634;9.420;2024-03-23T13:57:10;97953.13;;;19.42;73.78
53270;BME280;39159;45.634;9.420;2024-03-23T13:59:36;97959.41;;;19.32;73.78
53270;BME280;39159;45.634;9.420;2024-03-23T14:02:01;97970.91;;;19.37;74.67